Bennington, Oklahoma
Current Conditions -  °F | °C
As of 4:55 AM on Friday 19 Dec 2014 (Local Time) from KDUA Reporting Station
Haze Haze  
Wind Chill: 39°   Ceiling: 100
Heat Index: 43°   Visibility: 0.75mi
Dew Point: 43°   Wind: 7mph
Humidity: 100%   Direction: 360°N
Pressure: 30.16"   Gusts: NA
Location:  34°N, 96.04°W
Report Text: KDUA 191055Z AUTO 36006KT 3/4SM BR OVC001 06/06 A3016 RMK AO2
Loading
Personal Weather Stations






























Interactive Weather Map New forecast layout! Learn more

10-Day Weather Forecast

Advertisements
Track Severe Weather on mobile